sensor_id;sensor_type;location;lat;lon;timestamp;pressure;altitude;pressure_sealevel;temperature
75822;BMP180;64454;51.984;9.838;2024-03-02T00:00:23;99017.00;;;9.10
75822;BMP180;64454;51.984;9.838;2024-03-02T00:02:51;99013.00;;;9.00
75822;BMP180;64454;51.984;9.838;2024-03-02T00:05:20;99022.00;;;8.90
75822;BMP180;64454;51.984;9.838;2024-03-02T00:07:53;99012.00;;;8.90
75822;BMP180;64454;51.984;9.838;2024-03-02T00:10:23;99004.00;;;8.90
75822;BMP180;64454;51.984;9.838;2024-03-02T00:12:54;99018.00;;;9.10
75822;BMP180;64454;51.984;9.838;2024-03-02T00:15:41;99016.00;;;9.20
75822;BMP180;64454;51.984;9.838;2024-03-02T00:18:12;99012.00;;;9.10
75822;BMP180;64454;51.984;9.838;2024-03-02T00:20:39;99014.00;;;8.90
75822;BMP180;64454;51.984;9.838;2024-03-02T00:23:07;99009.00;;;9.00
75822;BMP180;64454;51.984;9.838;2024-03-02T00:25:39;99005.00;;;8.90
75822;BMP180;64454;51.984;9.838;2024-03-02T00:28:16;99005.00;;;9.00
75822;BMP180;64454;51.984;9.838;2024-03-02T00:31:02;99017.00;;;9.10
75822;BMP180;64454;51.984;9.838;2024-03-02T00:33:32;99013.00;;;9.10
75822;BMP180;64454;51.984;9.838;2024-03-02T00:35:59;99018.00;;;9.00
75822;BMP180;64454;51.984;9.838;2024-03-02T00:38:27;99018.00;;;8.90
75822;BMP180;64454;51.984;9.838;2024-03-02T00:40:54;99020.00;;;8.90
75822;BMP180;64454;51.984;9.838;2024-03-02T00:43:41;99028.00;;;8.90
75822;BMP180;64454;51.984;9.838;2024-03-02T00:46:09;99019.00;;;8.90
75822;BMP180;64454;51.984;9.838;2024-03-02T00:48:36;99016.00;;;9.00
75822;BMP180;64454;51.984;9.838;2024-03-02T00:51:03;99022.00;;;9.00
75822;BMP180;64454;51.984;9.838;2024-03-02T00:53:31;99026.00;;;8.90
75822;BMP180;64454;51.984;9.838;2024-03-02T00:55:59;99026.00;;;9.00
75822;BMP180;64454;51.984;9.838;2024-03-02T00:58:25;99024.00;;;9.20
75822;BMP180;64454;51.984;9.838;2024-03-02T01:00:51;99030.00;;;9.00
75822;BMP180;64454;51.984;9.838;2024-03-02T01:03:17;99024.00;;;9.00
75822;BMP180;64454;51.984;9.838;2024-03-02T01:05:45;99031.00;;;9.00
75822;BMP180;64454;51.984;9.838;2024-03-02T01:08:11;99028.00;;;8.90
75822;BMP180;64454;51.984;9.838;2024-03-02T01:10:37;99031.00;;;9.00
75822;BMP180;64454;51.984;9.838;2024-03-02T01:13:04;99026.00;;;8.90
75822;BMP180;64454;51.984;9.838;2024-03-02T01:15:30;99028.00;;;9.00
75822;BMP180;64454;51.984;9.838;2024-03-02T01:17:56;99032.00;;;9.10
75822;BMP180;64454;51.984;9.838;2024-03-02T01:20:22;99035.00;;;8.90
75822;BMP180;64454;51.984;9.838;2024-03-02T01:22:48;99032.00;;;8.90
75822;BMP180;64454;51.984;9.838;2024-03-02T01:25:14;99032.00;;;8.80
75822;BMP180;64454;51.984;9.838;2024-03-02T01:27:40;99026.00;;;8.80
75822;BMP180;64454;51.984;9.838;2024-03-02T01:30:08;99026.00;;;8.90
75822;BMP180;64454;51.984;9.838;2024-03-02T01:32:35;99029.00;;;8.90
75822;BMP180;64454;51.984;9.838;2024-03-02T01:35:01;99023.00;;;8.90
75822;BMP180;64454;51.984;9.838;2024-03-02T01:37:27;99034.00;;;8.90
75822;BMP180;64454;51.984;9.838;2024-03-02T01:39:53;99027.00;;;8.70
75822;BMP180;64454;51.984;9.838;2024-03-02T01:42:19;99026.00;;;8.80
75822;BMP180;64454;51.984;9.838;2024-03-02T01:44:45;99022.00;;;8.80
75822;BMP180;64454;51.984;9.838;2024-03-02T01:47:12;99018.00;;;9.10
75822;BMP180;64454;51.984;9.838;2024-03-02T01:49:38;99021.00;;;9.00
75822;BMP180;64454;51.984;9.838;2024-03-02T01:52:06;99017.00;;;9.00
75822;BMP180;64454;51.984;9.838;2024-03-02T01:54:33;99007.00;;;8.80
75822;BMP180;64454;51.984;9.838;2024-03-02T01:56:59;99004.00;;;8.90
75822;BMP180;64454;51.984;9.838;2024-03-02T01:59:25;99011.00;;;8.90
75822;BMP180;64454;51.984;9.838;2024-03-02T02:01:52;99007.00;;;8.80
75822;BMP180;64454;51.984;9.838;2024-03-02T02:04:19;99002.00;;;8.60
75822;BMP180;64454;51.984;9.838;2024-03-02T02:06:47;98994.00;;;8.70
75822;BMP180;64454;51.984;9.838;2024-03-02T02:09:13;98993.00;;;8.70
75822;BMP180;64454;51.984;9.838;2024-03-02T02:11:39;98995.00;;;8.70
75822;BMP180;64454;51.984;9.838;2024-03-02T02:14:06;98994.00;;;8.70
75822;BMP180;64454;51.984;9.838;2024-03-02T02:16:33;98992.00;;;8.70
75822;BMP180;64454;51.984;9.838;2024-03-02T02:18:59;98989.00;;;8.70
75822;BMP180;64454;51.984;9.838;2024-03-02T02:21:25;98984.00;;;8.70
75822;BMP180;64454;51.984;9.838;2024-03-02T02:23:52;98985.00;;;8.80
75822;BMP180;64454;51.984;9.838;2024-03-02T02:26:19;98979.00;;;8.70
75822;BMP180;64454;51.984;9.838;2024-03-02T02:28:45;98982.00;;;8.70
75822;BMP180;64454;51.984;9.838;2024-03-02T02:31:12;98980.00;;;8.70
75822;BMP180;64454;51.984;9.838;2024-03-02T02:33:39;98981.00;;;8.80
75822;BMP180;64454;51.984;9.838;2024-03-02T02:36:05;98984.00;;;8.80
75822;BMP180;64454;51.984;9.838;2024-03-02T02:38:35;98981.00;;;8.80
75822;BMP180;64454;51.984;9.838;2024-03-02T02:41:03;98986.00;;;8.70
75822;BMP180;64454;51.984;9.838;2024-03-02T02:43:29;98983.00;;;8.80
75822;BMP180;64454;51.984;9.838;2024-03-02T02:45:55;98979.00;;;8.80
75822;BMP180;64454;51.984;9.838;2024-03-02T02:48:21;98979.00;;;8.70
75822;BMP180;64454;51.984;9.838;2024-03-02T02:50:48;98975.00;;;8.80
75822;BMP180;64454;51.984;9.838;2024-03-02T02:53:14;98972.00;;;8.80
75822;BMP180;64454;51.984;9.838;2024-03-02T02:55:41;98971.00;;;8.60
75822;BMP180;64454;51.984;9.838;2024-03-02T02:58:09;98977.00;;;8.60
75822;BMP180;64454;51.984;9.838;2024-03-02T03:00:35;98969.00;;;8.70
75822;BMP180;64454;51.984;9.838;2024-03-02T03:03:02;98972.00;;;8.70
75822;BMP180;64454;51.984;9.838;2024-03-02T03:05:28;98967.00;;;8.60
75822;BMP180;64454;51.984;9.838;2024-03-02T03:07:54;98965.00;;;8.60
75822;BMP180;64454;51.984;9.838;2024-03-02T03:10:21;98967.00;;;8.60
75822;BMP180;64454;51.984;9.838;2024-03-02T03:12:49;98969.00;;;8.50
75822;BMP180;64454;51.984;9.838;2024-03-02T03:15:15;98975.00;;;8.60
75822;BMP180;64454;51.984;9.838;2024-03-02T03:17:42;98980.00;;;8.60
75822;BMP180;64454;51.984;9.838;2024-03-02T03:20:09;98981.00;;;8.60
75822;BMP180;64454;51.984;9.838;2024-03-02T03:22:35;98978.00;;;8.50
75822;BMP180;64454;51.984;9.838;2024-03-02T03:25:01;98973.00;;;8.50
75822;BMP180;64454;51.984;9.838;2024-03-02T03:27:29;98972.00;;;8.50
75822;BMP180;64454;51.984;9.838;2024-03-02T03:29:56;98972.00;;;8.30
75822;BMP180;64454;51.984;9.838;2024-03-02T03:32:22;98972.00;;;8.40
75822;BMP180;64454;51.984;9.838;2024-03-02T03:34:48;98959.00;;;8.40
75822;BMP180;64454;51.984;9.838;2024-03-02T03:37:14;98964.00;;;8.50
75822;BMP180;64454;51.984;9.838;2024-03-02T03:39:41;98959.00;;;8.40
75822;BMP180;64454;51.984;9.838;2024-03-02T03:42:07;98964.00;;;8.30
75822;BMP180;64454;51.984;9.838;2024-03-02T03:44:33;98964.00;;;8.30
75822;BMP180;64454;51.984;9.838;2024-03-02T03:47:00;98964.00;;;8.30
75822;BMP180;64454;51.984;9.838;2024-03-02T03:49:27;98964.00;;;8.40
75822;BMP180;64454;51.984;9.838;2024-03-02T03:51:53;98967.00;;;8.30
75822;BMP180;64454;51.984;9.838;2024-03-02T03:54:19;98961.00;;;8.30
75822;BMP180;64454;51.984;9.838;2024-03-02T03:56:46;98951.00;;;8.30
75822;BMP180;64454;51.984;9.838;2024-03-02T03:59:12;98956.00;;;8.10
75822;BMP180;64454;51.984;9.838;2024-03-02T04:01:38;98953.00;;;7.90
75822;BMP180;64454;51.984;9.838;2024-03-02T04:04:05;98944.00;;;8.00
75822;BMP180;64454;51.984;9.838;2024-03-02T04:06:32;98956.00;;;8.10
75822;BMP180;64454;51.984;9.838;2024-03-02T04:08:58;98959.00;;;8.00
75822;BMP180;64454;51.984;9.838;2024-03-02T04:11:24;98960.00;;;7.90
75822;BMP180;64454;51.984;9.838;2024-03-02T04:13:50;98967.00;;;8.00
75822;BMP180;64454;51.984;9.838;2024-03-02T04:16:16;98969.00;;;7.80
75822;BMP180;64454;51.984;9.838;2024-03-02T04:18:43;98976.00;;;7.80
75822;BMP180;64454;51.984;9.838;2024-03-02T04:21:09;98968.00;;;7.80
75822;BMP180;64454;51.984;9.838;2024-03-02T04:23:35;98968.00;;;7.70
75822;BMP180;64454;51.984;9.838;2024-03-02T04:26:01;98969.00;;;7.70
75822;BMP180;64454;51.984;9.838;2024-03-02T04:28:27;98974.00;;;7.60
75822;BMP180;64454;51.984;9.838;2024-03-02T04:30:54;98975.00;;;7.70
75822;BMP180;64454;51.984;9.838;2024-03-02T04:33:20;98968.00;;;7.60
75822;BMP180;64454;51.984;9.838;2024-03-02T04:35:46;98969.00;;;7.50
75822;BMP180;64454;51.984;9.838;2024-03-02T04:38:13;98968.00;;;7.40
75822;BMP180;64454;51.984;9.838;2024-03-02T04:40:39;98967.00;;;7.30
75822;BMP180;64454;51.984;9.838;2024-03-02T04:43:05;98969.00;;;7.30
75822;BMP180;64454;51.984;9.838;2024-03-02T04:45:31;98969.00;;;7.40
75822;BMP180;64454;51.984;9.838;2024-03-02T04:47:57;98966.00;;;7.50
75822;BMP180;64454;51.984;9.838;2024-03-02T04:50:23;98966.00;;;7.40
75822;BMP180;64454;51.984;9.838;2024-03-02T04:52:49;98964.00;;;7.50
75822;BMP180;64454;51.984;9.838;2024-03-02T04:55:16;98963.00;;;7.50
75822;BMP180;64454;51.984;9.838;2024-03-02T04:58:11;98967.00;;;7.50
75822;BMP180;64454;51.984;9.838;2024-03-02T05:00:37;98973.00;;;7.50
75822;BMP180;64454;51.984;9.838;2024-03-02T05:03:04;98980.00;;;7.40
75822;BMP180;64454;51.984;9.838;2024-03-02T05:05:30;98978.00;;;7.30
75822;BMP180;64454;51.984;9.838;2024-03-02T05:07:56;98989.00;;;7.20
75822;BMP180;64454;51.984;9.838;2024-03-02T05:10:23;98977.00;;;7.20
75822;BMP180;64454;51.984;9.838;2024-03-02T05:12:49;98985.00;;;7.20
75822;BMP180;64454;51.984;9.838;2024-03-02T05:15:22;98983.00;;;7.00
75822;BMP180;64454;51.984;9.838;2024-03-02T05:17:48;98975.00;;;7.10
75822;BMP180;64454;51.984;9.838;2024-03-02T05:20:14;98982.00;;;7.10
75822;BMP180;64454;51.984;9.838;2024-03-02T05:22:40;98976.00;;;7.10
75822;BMP180;64454;51.984;9.838;2024-03-02T05:25:07;98977.00;;;7.00
75822;BMP180;64454;51.984;9.838;2024-03-02T05:27:36;98983.00;;;6.80
75822;BMP180;64454;51.984;9.838;2024-03-02T05:30:03;98973.00;;;6.70
75822;BMP180;64454;51.984;9.838;2024-03-02T05:32:31;98986.00;;;6.70
75822;BMP180;64454;51.984;9.838;2024-03-02T05:34:58;98972.00;;;6.70
75822;BMP180;64454;51.984;9.838;2024-03-02T05:37:24;98972.00;;;6.70
75822;BMP180;64454;51.984;9.838;2024-03-02T05:39:50;98976.00;;;6.60
75822;BMP180;64454;51.984;9.838;2024-03-02T05:42:16;98968.00;;;6.50
75822;BMP180;64454;51.984;9.838;2024-03-02T05:44:43;98975.00;;;6.60
75822;BMP180;64454;51.984;9.838;2024-03-02T05:47:10;98983.00;;;6.80
75822;BMP180;64454;51.984;9.838;2024-03-02T05:49:36;98987.00;;;6.70
75822;BMP180;64454;51.984;9.838;2024-03-02T05:52:02;98996.00;;;6.70
75822;BMP180;64454;51.984;9.838;2024-03-02T05:54:28;98997.00;;;6.60
75822;BMP180;64454;51.984;9.838;2024-03-02T05:56:55;98994.00;;;6.60
75822;BMP180;64454;51.984;9.838;2024-03-02T05:59:21;99003.00;;;6.70
75822;BMP180;64454;51.984;9.838;2024-03-02T06:01:48;98998.00;;;6.60
75822;BMP180;64454;51.984;9.838;2024-03-02T06:04:16;99002.00;;;6.40
75822;BMP180;64454;51.984;9.838;2024-03-02T06:07:03;99001.00;;;6.60
75822;BMP180;64454;51.984;9.838;2024-03-02T06:09:49;99004.00;;;6.40
75822;BMP180;64454;51.984;9.838;2024-03-02T06:12:38;99008.00;;;6.90
75822;BMP180;64454;51.984;9.838;2024-03-02T06:15:05;99007.00;;;6.90
75822;BMP180;64454;51.984;9.838;2024-03-02T06:17:31;98998.00;;;6.80
75822;BMP180;64454;51.984;9.838;2024-03-02T06:19:57;99010.00;;;6.80
75822;BMP180;64454;51.984;9.838;2024-03-02T06:22:24;99009.00;;;6.90
75822;BMP180;64454;51.984;9.838;2024-03-02T06:24:51;99004.00;;;6.70
75822;BMP180;64454;51.984;9.838;2024-03-02T06:27:17;99008.00;;;6.70
75822;BMP180;64454;51.984;9.838;2024-03-02T06:29:43;99009.00;;;7.00
75822;BMP180;64454;51.984;9.838;2024-03-02T06:32:09;99023.00;;;6.70
75822;BMP180;64454;51.984;9.838;2024-03-02T06:34:36;99030.00;;;6.90
75822;BMP180;64454;51.984;9.838;2024-03-02T06:37:02;99029.00;;;7.00
75822;BMP180;64454;51.984;9.838;2024-03-02T06:39:28;99024.00;;;7.10
75822;BMP180;64454;51.984;9.838;2024-03-02T06:41:56;99033.00;;;7.20
75822;BMP180;64454;51.984;9.838;2024-03-02T06:44:22;99031.00;;;6.90
75822;BMP180;64454;51.984;9.838;2024-03-02T06:46:48;99031.00;;;6.90
75822;BMP180;64454;51.984;9.838;2024-03-02T06:49:14;99029.00;;;7.00
75822;BMP180;64454;51.984;9.838;2024-03-02T06:51:43;99027.00;;;7.00
75822;BMP180;64454;51.984;9.838;2024-03-02T06:54:10;99028.00;;;7.10
75822;BMP180;64454;51.984;9.838;2024-03-02T06:56:36;99022.00;;;7.10
75822;BMP180;64454;51.984;9.838;2024-03-02T06:59:03;99033.00;;;7.20
75822;BMP180;64454;51.984;9.838;2024-03-02T07:01:29;99029.00;;;7.20
75822;BMP180;64454;51.984;9.838;2024-03-02T07:03:55;99040.00;;;7.20
75822;BMP180;64454;51.984;9.838;2024-03-02T07:06:21;99042.00;;;7.20
75822;BMP180;64454;51.984;9.838;2024-03-02T07:08:48;99047.00;;;7.40
75822;BMP180;64454;51.984;9.838;2024-03-02T07:11:14;99039.00;;;7.50
75822;BMP180;64454;51.984;9.838;2024-03-02T07:13:40;99049.00;;;7.60
75822;BMP180;64454;51.984;9.838;2024-03-02T07:16:06;99043.00;;;7.80
75822;BMP180;64454;51.984;9.838;2024-03-02T07:18:50;99037.00;;;7.90
75822;BMP180;64454;51.984;9.838;2024-03-02T07:21:17;99037.00;;;7.90
75822;BMP180;64454;51.984;9.838;2024-03-02T07:23:44;99042.00;;;7.90
75822;BMP180;64454;51.984;9.838;2024-03-02T07:26:10;99049.00;;;7.80
75822;BMP180;64454;51.984;9.838;2024-03-02T07:28:36;99050.00;;;7.90
75822;BMP180;64454;51.984;9.838;2024-03-02T07:31:04;99052.00;;;8.10
75822;BMP180;64454;51.984;9.838;2024-03-02T07:33:31;99049.00;;;8.10
75822;BMP180;64454;51.984;9.838;2024-03-02T07:35:58;99060.00;;;8.10
75822;BMP180;64454;51.984;9.838;2024-03-02T07:38:26;99068.00;;;8.30
75822;BMP180;64454;51.984;9.838;2024-03-02T07:40:52;99067.00;;;8.30
75822;BMP180;64454;51.984;9.838;2024-03-02T07:43:20;99069.00;;;8.00
75822;BMP180;64454;51.984;9.838;2024-03-02T07:45:46;99072.00;;;7.80
75822;BMP180;64454;51.984;9.838;2024-03-02T07:48:12;99079.00;;;7.80
75822;BMP180;64454;51.984;9.838;2024-03-02T07:50:39;99078.00;;;7.70
75822;BMP180;64454;51.984;9.838;2024-03-02T07:53:05;99079.00;;;7.50
75822;BMP180;64454;51.984;9.838;2024-03-02T07:55:33;99082.00;;;7.70
75822;BMP180;64454;51.984;9.838;2024-03-02T07:58:00;99091.00;;;7.70
75822;BMP180;64454;51.984;9.838;2024-03-02T08:00:27;99086.00;;;7.60
75822;BMP180;64454;51.984;9.838;2024-03-02T08:02:53;99084.00;;;7.70
75822;BMP180;64454;51.984;9.838;2024-03-02T08:05:19;99088.00;;;7.60
75822;BMP180;64454;51.984;9.838;2024-03-02T08:07:46;99093.00;;;7.70
75822;BMP180;64454;51.984;9.838;2024-03-02T08:10:13;99090.00;;;7.70
75822;BMP180;64454;51.984;9.838;2024-03-02T08:12:39;99090.00;;;7.70
75822;BMP180;64454;51.984;9.838;2024-03-02T08:15:06;99093.00;;;7.90
75822;BMP180;64454;51.984;9.838;2024-03-02T08:17:33;99084.00;;;8.10
75822;BMP180;64454;51.984;9.838;2024-03-02T08:19:59;99082.00;;;8.20
75822;BMP180;64454;51.984;9.838;2024-03-02T08:22:25;99078.00;;;8.10
75822;BMP180;64454;51.984;9.838;2024-03-02T08:24:51;99078.00;;;8.30
75822;BMP180;64454;51.984;9.838;2024-03-02T08:27:17;99079.00;;;8.60
75822;BMP180;64454;51.984;9.838;2024-03-02T08:29:43;99086.00;;;8.80
75822;BMP180;64454;51.984;9.838;2024-03-02T08:32:09;99072.00;;;8.90
75822;BMP180;64454;51.984;9.838;2024-03-02T08:34:36;99079.00;;;9.30
75822;BMP180;64454;51.984;9.838;2024-03-02T08:37:03;99082.00;;;9.40
75822;BMP180;64454;51.984;9.838;2024-03-02T08:39:29;99077.00;;;9.60
75822;BMP180;64454;51.984;9.838;2024-03-02T08:41:55;99088.00;;;10.10
75822;BMP180;64454;51.984;9.838;2024-03-02T08:44:21;99086.00;;;9.90
75822;BMP180;64454;51.984;9.838;2024-03-02T08:46:47;99087.00;;;10.30
75822;BMP180;64454;51.984;9.838;2024-03-02T08:49:14;99094.00;;;10.20
75822;BMP180;64454;51.984;9.838;2024-03-02T08:51:40;99105.00;;;10.40
75822;BMP180;64454;51.984;9.838;2024-03-02T08:54:06;99097.00;;;10.20
75822;BMP180;64454;51.984;9.838;2024-03-02T08:56:33;99093.00;;;10.30
75822;BMP180;64454;51.984;9.838;2024-03-02T08:58:59;99099.00;;;10.70
75822;BMP180;64454;51.984;9.838;2024-03-02T09:01:25;99104.00;;;10.60
75822;BMP180;64454;51.984;9.838;2024-03-02T09:03:51;99104.00;;;10.90
75822;BMP180;64454;51.984;9.838;2024-03-02T09:06:17;99108.00;;;11.00
75822;BMP180;64454;51.984;9.838;2024-03-02T09:08:45;99110.00;;;11.20
75822;BMP180;64454;51.984;9.838;2024-03-02T09:11:11;99108.00;;;10.90
75822;BMP180;64454;51.984;9.838;2024-03-02T09:13:38;99112.00;;;11.00
75822;BMP180;64454;51.984;9.838;2024-03-02T09:16:05;99103.00;;;10.60
75822;BMP180;64454;51.984;9.838;2024-03-02T09:18:31;99103.00;;;10.70
75822;BMP180;64454;51.984;9.838;2024-03-02T09:20:57;99104.00;;;10.80
75822;BMP180;64454;51.984;9.838;2024-03-02T09:23:23;99095.00;;;10.90
75822;BMP180;64454;51.984;9.838;2024-03-02T09:25:49;99097.00;;;10.90
75822;BMP180;64454;51.984;9.838;2024-03-02T09:28:15;99098.00;;;10.70
75822;BMP180;64454;51.984;9.838;2024-03-02T09:30:41;99097.00;;;10.60
75822;BMP180;64454;51.984;9.838;2024-03-02T09:33:08;99099.00;;;10.20
75822;BMP180;64454;51.984;9.838;2024-03-02T09:35:34;99095.00;;;10.30
75822;BMP180;64454;51.984;9.838;2024-03-02T09:38:00;99100.00;;;10.30
75822;BMP180;64454;51.984;9.838;2024-03-02T09:40:26;99100.00;;;10.30
75822;BMP180;64454;51.984;9.838;2024-03-02T09:42:54;99101.00;;;10.20
75822;BMP180;64454;51.984;9.838;2024-03-02T09:45:24;99099.00;;;10.60
75822;BMP180;64454;51.984;9.838;2024-03-02T09:47:50;99107.00;;;10.40
75822;BMP180;64454;51.984;9.838;2024-03-02T09:50:17;99099.00;;;10.70
75822;BMP180;64454;51.984;9.838;2024-03-02T09:52:44;99098.00;;;10.80
75822;BMP180;64454;51.984;9.838;2024-03-02T09:55:11;99103.00;;;11.00
75822;BMP180;64454;51.984;9.838;2024-03-02T09:57:37;99103.00;;;10.90
75822;BMP180;64454;51.984;9.838;2024-03-02T10:00:06;99107.00;;;11.20
75822;BMP180;64454;51.984;9.838;2024-03-02T10:02:32;99104.00;;;11.50
75822;BMP180;64454;51.984;9.838;2024-03-02T10:04:58;99100.00;;;11.50
75822;BMP180;64454;51.984;9.838;2024-03-02T10:07:24;99103.00;;;11.70
75822;BMP180;64454;51.984;9.838;2024-03-02T10:09:50;99110.00;;;11.90
75822;BMP180;64454;51.984;9.838;2024-03-02T10:12:18;99111.00;;;12.10
75822;BMP180;64454;51.984;9.838;2024-03-02T10:14:45;99110.00;;;12.60
75822;BMP180;64454;51.984;9.838;2024-03-02T10:17:13;99108.00;;;12.60
75822;BMP180;64454;51.984;9.838;2024-03-02T10:19:40;99107.00;;;12.80
75822;BMP180;64454;51.984;9.838;2024-03-02T10:22:08;99103.00;;;12.50
75822;BMP180;64454;51.984;9.838;2024-03-02T10:24:39;99105.00;;;12.90
75822;BMP180;64454;51.984;9.838;2024-03-02T10:27:10;99102.00;;;12.90
75822;BMP180;64454;51.984;9.838;2024-03-02T10:29:40;99107.00;;;13.20
75822;BMP180;64454;51.984;9.838;2024-03-02T10:32:09;99109.00;;;13.40
75822;BMP180;64454;51.984;9.838;2024-03-02T10:34:36;99108.00;;;14.60
75822;BMP180;64454;51.984;9.838;2024-03-02T10:37:03;99108.00;;;14.40
75822;BMP180;64454;51.984;9.838;2024-03-02T10:39:30;99100.00;;;14.20
75822;BMP180;64454;51.984;9.838;2024-03-02T10:41:58;99101.00;;;14.30
75822;BMP180;64454;51.984;9.838;2024-03-02T10:44:26;99110.00;;;14.30
75822;BMP180;64454;51.984;9.838;2024-03-02T10:46:53;99100.00;;;14.20
75822;BMP180;64454;51.984;9.838;2024-03-02T10:49:22;99097.00;;;14.00
75822;BMP180;64454;51.984;9.838;2024-03-02T10:51:49;99105.00;;;15.20
75822;BMP180;64454;51.984;9.838;2024-03-02T10:54:15;99111.00;;;14.30
75822;BMP180;64454;51.984;9.838;2024-03-02T10:56:44;99112.00;;;13.80
75822;BMP180;64454;51.984;9.838;2024-03-02T10:59:17;99108.00;;;14.50
75822;BMP180;64454;51.984;9.838;2024-03-02T11:01:48;99099.00;;;15.30
75822;BMP180;64454;51.984;9.838;2024-03-02T11:04:18;99093.00;;;15.60
75822;BMP180;64454;51.984;9.838;2024-03-02T11:06:50;99104.00;;;14.80
75822;BMP180;64454;51.984;9.838;2024-03-02T11:09:20;99099.00;;;14.80
75822;BMP180;64454;51.984;9.838;2024-03-02T11:11:58;99105.00;;;15.40
75822;BMP180;64454;51.984;9.838;2024-03-02T11:14:30;99093.00;;;16.50
75822;BMP180;64454;51.984;9.838;2024-03-02T11:16:57;99107.00;;;15.10
75822;BMP180;64454;51.984;9.838;2024-03-02T11:19:23;99112.00;;;14.60
75822;BMP180;64454;51.984;9.838;2024-03-02T11:21:51;99107.00;;;14.40
75822;BMP180;64454;51.984;9.838;2024-03-02T11:24:33;99106.00;;;13.80
75822;BMP180;64454;51.984;9.838;2024-03-02T11:27:00;99115.00;;;13.30
75822;BMP180;64454;51.984;9.838;2024-03-02T11:29:46;99109.00;;;12.50
75822;BMP180;64454;51.984;9.838;2024-03-02T11:32:18;99114.00;;;12.60
75822;BMP180;64454;51.984;9.838;2024-03-02T11:34:48;99104.00;;;13.00
75822;BMP180;64454;51.984;9.838;2024-03-02T11:37:16;99106.00;;;12.90
75822;BMP180;64454;51.984;9.838;2024-03-02T11:39:44;99109.00;;;12.70
75822;BMP180;64454;51.984;9.838;2024-03-02T11:42:12;99106.00;;;12.50
75822;BMP180;64454;51.984;9.838;2024-03-02T11:44:43;99111.00;;;12.80
75822;BMP180;64454;51.984;9.838;2024-03-02T11:47:13;99115.00;;;12.40
75822;BMP180;64454;51.984;9.838;2024-03-02T11:49:42;99107.00;;;12.60
75822;BMP180;64454;51.984;9.838;2024-03-02T11:52:11;99107.00;;;12.60
75822;BMP180;64454;51.984;9.838;2024-03-02T11:54:39;99102.00;;;12.50
75822;BMP180;64454;51.984;9.838;2024-03-02T11:57:06;99102.00;;;12.60
75822;BMP180;64454;51.984;9.838;2024-03-02T11:59:33;99102.00;;;12.50
75822;BMP180;64454;51.984;9.838;2024-03-02T12:01:59;99099.00;;;12.60
75822;BMP180;64454;51.984;9.838;2024-03-02T12:04:26;99098.00;;;12.60
75822;BMP180;64454;51.984;9.838;2024-03-02T12:06:58;99090.00;;;12.50
75822;BMP180;64454;51.984;9.838;2024-03-02T12:09:26;99104.00;;;12.60
75822;BMP180;64454;51.984;9.838;2024-03-02T12:12:03;99092.00;;;12.70
75822;BMP180;64454;51.984;9.838;2024-03-02T12:14:30;99096.00;;;12.70
75822;BMP180;64454;51.984;9.838;2024-03-02T12:16:57;99081.00;;;12.90
75822;BMP180;64454;51.984;9.838;2024-03-02T12:19:24;99076.00;;;12.80
75822;BMP180;64454;51.984;9.838;2024-03-02T12:21:50;99072.00;;;13.00
75822;BMP180;64454;51.984;9.838;2024-03-02T12:24:16;99063.00;;;13.60
75822;BMP180;64454;51.984;9.838;2024-03-02T12:26:43;99057.00;;;13.50
75822;BMP180;64454;51.984;9.838;2024-03-02T12:29:10;99060.00;;;13.50
75822;BMP180;64454;51.984;9.838;2024-03-02T12:31:36;99049.00;;;13.50
75822;BMP180;64454;51.984;9.838;2024-03-02T12:34:03;99053.00;;;14.10
75822;BMP180;64454;51.984;9.838;2024-03-02T12:36:29;99057.00;;;13.80
75822;BMP180;64454;51.984;9.838;2024-03-02T12:38:55;99054.00;;;14.80
75822;BMP180;64454;51.984;9.838;2024-03-02T12:41:22;99055.00;;;15.50
75822;BMP180;64454;51.984;9.838;2024-03-02T12:43:48;99061.00;;;15.80
75822;BMP180;64454;51.984;9.838;2024-03-02T12:46:14;99054.00;;;15.40
75822;BMP180;64454;51.984;9.838;2024-03-02T12:48:41;99053.00;;;15.50
75822;BMP180;64454;51.984;9.838;2024-03-02T12:51:07;99052.00;;;15.70
75822;BMP180;64454;51.984;9.838;2024-03-02T12:53:34;99048.00;;;15.80
75822;BMP180;64454;51.984;9.838;2024-03-02T12:56:00;99033.00;;;15.80
75822;BMP180;64454;51.984;9.838;2024-03-02T12:58:26;99035.00;;;16.10
75822;BMP180;64454;51.984;9.838;2024-03-02T13:01:06;99014.00;;;16.10
75822;BMP180;64454;51.984;9.838;2024-03-02T13:03:36;99009.00;;;16.40
75822;BMP180;64454;51.984;9.838;2024-03-02T13:06:04;99016.00;;;16.60
75822;BMP180;64454;51.984;9.838;2024-03-02T13:08:30;99018.00;;;17.50
75822;BMP180;64454;51.984;9.838;2024-03-02T13:10:56;99027.00;;;17.00
75822;BMP180;64454;51.984;9.838;2024-03-02T13:13:22;99019.00;;;17.50
75822;BMP180;64454;51.984;9.838;2024-03-02T13:15:49;99015.00;;;17.70
75822;BMP180;64454;51.984;9.838;2024-03-02T13:18:17;99014.00;;;17.10
75822;BMP180;64454;51.984;9.838;2024-03-02T13:20:44;99011.00;;;17.70
75822;BMP180;64454;51.984;9.838;2024-03-02T13:23:10;99014.00;;;18.10
75822;BMP180;64454;51.984;9.838;2024-03-02T13:25:36;99006.00;;;18.40
75822;BMP180;64454;51.984;9.838;2024-03-02T13:28:03;99006.00;;;18.30
75822;BMP180;64454;51.984;9.838;2024-03-02T13:30:29;99006.00;;;19.20
75822;BMP180;64454;51.984;9.838;2024-03-02T13:32:55;99004.00;;;19.10
75822;BMP180;64454;51.984;9.838;2024-03-02T13:35:21;99026.00;;;20.00
75822;BMP180;64454;51.984;9.838;2024-03-02T13:37:48;99013.00;;;19.30
75822;BMP180;64454;51.984;9.838;2024-03-02T13:40:15;99008.00;;;18.00
75822;BMP180;64454;51.984;9.838;2024-03-02T13:42:45;99017.00;;;19.60
75822;BMP180;64454;51.984;9.838;2024-03-02T13:45:12;99023.00;;;18.40
75822;BMP180;64454;51.984;9.838;2024-03-02T13:47:39;99019.00;;;18.60
75822;BMP180;64454;51.984;9.838;2024-03-02T13:50:06;99011.00;;;18.10
75822;BMP180;64454;51.984;9.838;2024-03-02T13:52:33;99018.00;;;18.80
75822;BMP180;64454;51.984;9.838;2024-03-02T13:54:59;99008.00;;;19.20
75822;BMP180;64454;51.984;9.838;2024-03-02T13:57:26;99012.00;;;17.60
75822;BMP180;64454;51.984;9.838;2024-03-02T13:59:52;99008.00;;;17.80
75822;BMP180;64454;51.984;9.838;2024-03-02T14:02:18;99018.00;;;17.70
75822;BMP180;64454;51.984;9.838;2024-03-02T14:04:45;99016.00;;;17.30
75822;BMP180;64454;51.984;9.838;2024-03-02T14:07:11;99017.00;;;17.30
75822;BMP180;64454;51.984;9.838;2024-03-02T14:09:37;99009.00;;;17.40
75822;BMP180;64454;51.984;9.838;2024-03-02T14:12:05;99021.00;;;18.70
75822;BMP180;64454;51.984;9.838;2024-03-02T14:14:32;99023.00;;;17.70
75822;BMP180;64454;51.984;9.838;2024-03-02T14:16:59;99022.00;;;17.60